createdAt,value
2019-01-06T00:01:35.454Z,42.67
2019-01-06T00:04:25.691Z,42.83
2019-01-06T00:07:15.128Z,43.12
2019-01-06T00:10:05.614Z,41.95
2019-01-06T00:12:49.001Z,41.88
2019-01-06T00:15:46.136Z,41.88
2019-01-06T00:18:36.548Z,41.82
2019-01-06T00:21:46.573Z,42.53
2019-01-06T00:24:44.426Z,42.12
2019-01-06T00:27:35.878Z,42.12
2019-01-06T00:30:27.638Z,42.79
2019-01-06T00:33:21.345Z,41.18
2019-01-06T00:36:25.105Z,41.18
2019-01-06T00:39:16.536Z,42.64
2019-01-06T00:42:07.613Z,41.78
2019-01-06T00:44:57.915Z,42.20
2019-01-06T00:48:01.847Z,42.20
2019-01-06T00:51:02.501Z,42.82
2019-01-06T00:54:03.089Z,43.15
2019-01-06T00:56:53.405Z,43.15
2019-01-06T00:59:47.526Z,43.02
2019-01-06T01:02:38.605Z,42.82
2019-01-06T01:05:28.278Z,42.94
2019-01-06T01:08:18.451Z,42.76
2019-01-06T01:11:06.756Z,42.96
2019-01-06T01:14:09.355Z,43.22
2019-01-06T01:17:03.748Z,42.62
2019-01-06T01:19:51.287Z,43.53
2019-01-06T01:22:42.578Z,42.32
2019-01-06T01:25:42.917Z,43.03
2019-01-06T01:28:34.333Z,43.03
2019-01-06T01:31:38.050Z,43.04
2019-01-06T01:34:26.459Z,43.30
2019-01-06T01:37:17.567Z,42.58
2019-01-06T01:40:07.480Z,42.20
2019-01-06T01:43:01.527Z,43.04
2019-01-06T01:45:58.655Z,41.73
2019-01-06T01:49:05.859Z,41.44
2019-01-06T01:52:06.424Z,41.44
2019-01-06T01:54:56.896Z,41.23
2019-01-06T01:58:00.869Z,42.37
2019-01-06T02:00:54.446Z,42.94
2019-01-06T02:04:03.866Z,43.60
2019-01-06T02:07:04.313Z,42.78
2019-01-06T02:10:11.553Z,43.31
2019-01-06T02:13:05.904Z,43.57
2019-01-06T02:16:15.617Z,43.34
2019-01-06T02:19:21.796Z,43.70
2019-01-06T02:22:22.349Z,43.41
2019-01-06T02:25:13.540Z,43.40
2019-01-06T02:28:07.462Z,43.50
2019-01-06T02:31:07.911Z,43.48
2019-01-06T02:33:58.342Z,43.16
2019-01-06T02:37:01.721Z,43.69
2019-01-06T02:39:50.420Z,43.39
2019-01-06T02:42:40.625Z,43.43
2019-01-06T02:45:34.827Z,43.71
2019-01-06T02:48:25.633Z,43.72
2019-01-06T02:51:08.891Z,43.21
2019-01-06T02:54:00.341Z,43.21
2019-01-06T02:57:04.089Z,43.48
2019-01-06T02:59:54.340Z,43.39
2019-01-06T03:02:57.630Z,42.85
2019-01-06T03:05:44.342Z,42.67
2019-01-06T03:08:34.339Z,42.67
2019-01-06T03:11:25.596Z,42.45
2019-01-06T03:14:29.114Z,43.35
2019-01-06T03:17:13.900Z,43.35
2019-01-06T03:20:17.319Z,42.70
2019-01-06T03:23:08.006Z,42.96
2019-01-06T03:26:05.572Z,42.31
2019-01-06T03:28:55.333Z,42.85
2019-01-06T03:31:52.881Z,42.85
2019-01-06T03:34:40.329Z,43.21
2019-01-06T03:37:31.500Z,43.47
2019-01-06T03:40:22.000Z,42.96
2019-01-06T03:43:15.111Z,42.76
2019-01-06T03:46:09.364Z,42.94
2019-01-06T03:48:59.503Z,43.34
2019-01-06T03:51:50.611Z,43.45
2019-01-06T03:54:40.855Z,42.72
2019-01-06T03:57:43.830Z,42.72
2019-01-06T04:00:34.346Z,42.66
2019-01-06T04:03:37.646Z,43.06
2019-01-06T04:06:35.105Z,43.24
2019-01-06T04:09:43.019Z,43.24
2019-01-06T04:12:40.330Z,43.33
2019-01-06T04:15:29.405Z,42.21
2019-01-06T04:18:25.069Z,43.05
2019-01-06T04:21:23.098Z,42.05
2019-01-06T04:24:14.532Z,43.20
2019-01-06T04:27:17.822Z,42.99
2019-01-06T04:30:14.966Z,42.76
2019-01-06T04:33:05.523Z,42.90
2019-01-06T04:35:59.506Z,42.93
2019-01-06T04:38:56.505Z,42.93
2019-01-06T04:41:47.553Z,43.09
2019-01-06T04:44:50.564Z,42.85
2019-01-06T04:47:45.361Z,42.31
2019-01-06T04:50:42.741Z,42.31
2019-01-06T04:53:48.824Z,42.85
2019-01-06T04:56:49.020Z,43.28
2019-01-06T04:59:39.339Z,43.04
2019-01-06T05:02:29.806Z,43.17
2019-01-06T05:05:22.820Z,43.47
2019-01-06T05:08:12.731Z,43.41
2019-01-06T05:11:13.465Z,43.24
2019-01-06T05:14:20.336Z,43.34
2019-01-06T05:17:10.931Z,43.25
2019-01-06T05:20:01.904Z,42.89
2019-01-06T05:22:52.340Z,43.17
2019-01-06T05:25:43.358Z,43.94
2019-01-06T05:28:37.573Z,41.64
2019-01-06T05:31:31.610Z,43.16
2019-01-06T05:34:28.423Z,42.51
2019-01-06T05:37:22.608Z,42.51
2019-01-06T05:40:15.102Z,43.13
2019-01-06T05:43:07.397Z,43.13
2019-01-06T05:46:04.665Z,42.05
2019-01-06T05:48:53.636Z,43.35
2019-01-06T05:51:43.891Z,42.53
2019-01-06T05:54:50.331Z,43.39
2019-01-06T05:57:41.567Z,43.58
2019-01-06T06:00:51.514Z,43.19
2019-01-06T06:03:53.732Z,41.26
2019-01-06T06:06:37.434Z,39.84
2019-01-06T06:09:26.914Z,38.53
2019-01-06T06:12:18.409Z,37.45
2019-01-06T06:15:09.550Z,36.90
2019-01-06T06:18:05.559Z,35.34
2019-01-06T06:20:55.674Z,35.31
2019-01-06T06:23:55.545Z,34.83
2019-01-06T06:26:45.785Z,34.10
2019-01-06T06:29:49.848Z,34.10
2019-01-06T06:32:53.424Z,33.60
2019-01-06T06:35:43.494Z,33.73
2019-01-06T06:38:34.008Z,33.63
2019-01-06T06:41:38.044Z,34.44
2019-01-06T06:44:29.596Z,34.65
2019-01-06T06:47:20.540Z,34.88
2019-01-06T06:50:26.892Z,34.88
2019-01-06T06:53:21.520Z,34.50
2019-01-06T06:56:12.332Z,34.76
2019-01-06T06:59:19.496Z,34.73
2019-01-06T07:03:10.061Z,35.00
2019-01-06T07:06:05.761Z,35.57
2019-01-06T07:08:56.899Z,35.52
2019-01-06T07:12:00.330Z,36.27
2019-01-06T07:14:44.533Z,36.43
2019-01-06T07:18:09.964Z,36.62
2019-01-06T07:21:07.288Z,38.04
2019-01-06T07:23:55.553Z,38.04
2019-01-06T07:27:02.852Z,38.61
2019-01-06T07:29:52.647Z,39.51
2019-01-06T07:32:46.694Z,39.78
2019-01-06T07:35:50.113Z,40.58
2019-01-06T07:38:40.498Z,40.58
2019-01-06T07:41:31.818Z,40.56
2019-01-06T07:44:28.890Z,40.40
2019-01-06T07:47:19.345Z,40.14
2019-01-06T07:50:11.577Z,41.23
2019-01-06T07:53:21.530Z,41.50
2019-01-06T07:56:11.632Z,41.50
2019-01-06T07:59:01.117Z,40.47
2019-01-06T08:01:51.484Z,40.47
2019-01-06T08:04:41.502Z,41.20
2019-01-06T08:07:31.810Z,40.20
2019-01-06T08:10:21.841Z,40.22
2019-01-06T08:13:11.767Z,40.73
2019-01-06T08:16:20.412Z,40.89
2019-01-06T08:19:14.584Z,39.71
2019-01-06T08:22:10.738Z,40.60
2019-01-06T08:25:04.291Z,40.60
2019-01-06T08:27:54.773Z,40.94
2019-01-06T08:30:44.709Z,40.13
2019-01-06T08:33:33.764Z,41.30
2019-01-06T08:36:31.000Z,41.19
2019-01-06T08:39:21.423Z,41.02
2019-01-06T08:42:15.893Z,41.51
2019-01-06T08:45:25.351Z,41.03
2019-01-06T08:48:19.475Z,41.56
2019-01-06T08:51:16.625Z,41.43
2019-01-06T08:54:06.688Z,41.08
2019-01-06T08:56:57.617Z,41.02
2019-01-06T09:00:07.585Z,41.50
2019-01-06T09:02:57.337Z,41.89
2019-01-06T09:05:47.791Z,41.89
2019-01-06T09:08:52.106Z,41.25
2019-01-06T09:11:49.894Z,41.51
2019-01-06T09:14:40.524Z,41.90
2019-01-06T09:17:34.423Z,41.70
2019-01-06T09:20:35.326Z,41.73
2019-01-06T09:23:35.709Z,41.39
2019-01-06T09:26:40.518Z,41.57
2019-01-06T09:29:32.413Z,42.04
2019-01-06T09:32:24.299Z,42.04
2019-01-06T09:35:15.453Z,42.23
2019-01-06T09:38:23.145Z,42.01
2019-01-06T09:41:17.666Z,42.20
2019-01-06T09:44:06.613Z,41.54
2019-01-06T09:46:56.760Z,42.18
2019-01-06T09:49:55.962Z,40.97
2019-01-06T09:52:49.860Z,41.89
2019-01-06T09:55:50.092Z,41.98
2019-01-06T09:58:50.540Z,42.17
2019-01-06T10:01:40.718Z,41.31
2019-01-06T10:04:34.960Z,42.04
2019-01-06T10:07:33.748Z,41.39
2019-01-06T10:10:24.931Z,41.63
2019-01-06T10:13:15.580Z,42.20
2019-01-06T10:16:05.872Z,42.20
2019-01-06T10:19:06.096Z,42.20
2019-01-06T10:21:57.528Z,41.52
2019-01-06T10:24:58.083Z,41.98
2019-01-06T10:28:03.792Z,42.06
2019-01-06T10:31:02.274Z,42.12
2019-01-06T10:33:57.787Z,42.29
2019-01-06T10:36:47.461Z,40.20
2019-01-06T10:39:35.101Z,40.19
2019-01-06T10:42:41.552Z,42.03
2019-01-06T10:45:37.823Z,40.90
2019-01-06T10:48:34.335Z,41.91
2019-01-06T10:51:34.341Z,41.74
2019-01-06T10:54:34.583Z,41.46
2019-01-06T10:57:27.324Z,42.00
2019-01-06T11:00:24.943Z,42.00
2019-01-06T11:03:40.588Z,40.50
2019-01-06T11:06:35.024Z,42.54
2019-01-06T11:09:25.615Z,42.54
2019-01-06T11:12:32.334Z,41.93
2019-01-06T11:15:23.331Z,41.58
2019-01-06T11:18:13.742Z,41.19
2019-01-06T11:21:06.688Z,42.23
2019-01-06T11:23:59.821Z,42.28
2019-01-06T11:26:49.789Z,42.44
2019-01-06T11:29:52.312Z,41.54
2019-01-06T11:32:44.845Z,42.10
2019-01-06T11:35:38.911Z,42.00
2019-01-06T11:38:33.016Z,42.03
2019-01-06T11:41:38.976Z,41.90
2019-01-06T11:44:39.694Z,41.58
2019-01-06T11:47:26.778Z,41.65
2019-01-06T11:50:18.335Z,41.56
2019-01-06T11:53:21.524Z,42.23
2019-01-06T11:56:09.909Z,41.99
2019-01-06T11:59:21.358Z,42.14
2019-01-06T12:02:24.213Z,42.50
2019-01-06T12:05:21.598Z,41.76
2019-01-06T12:08:21.578Z,42.18
2019-01-06T12:11:25.814Z,41.53
2019-01-06T12:14:27.016Z,41.53
2019-01-06T12:17:17.318Z,41.82
2019-01-06T12:20:14.501Z,41.72
2019-01-06T12:23:15.646Z,42.08
2019-01-06T12:26:05.963Z,41.51
2019-01-06T12:28:56.516Z,41.51
2019-01-06T12:31:46.618Z,41.28
2019-01-06T12:34:56.815Z,40.84
2019-01-06T12:37:58.100Z,40.84
2019-01-06T12:41:01.950Z,41.38
2019-01-06T12:43:52.092Z,42.01
2019-01-06T12:46:42.804Z,41.21
2019-01-06T12:49:33.878Z,41.85
2019-01-06T12:52:28.331Z,41.04
2019-01-06T12:55:19.473Z,41.30
2019-01-06T12:58:11.369Z,41.79
2019-01-06T13:01:11.725Z,41.53
2019-01-06T13:04:15.662Z,39.51
2019-01-06T13:07:18.565Z,36.35
2019-01-06T13:10:22.454Z,35.57
2019-01-06T13:13:36.555Z,35.57
2019-01-06T13:16:38.011Z,35.00
2019-01-06T13:19:32.346Z,34.03
2019-01-06T13:22:22.527Z,33.88
2019-01-06T13:25:13.641Z,32.85
2019-01-06T13:28:13.166Z,32.00
2019-01-06T13:31:01.905Z,32.00
2019-01-06T13:33:52.783Z,32.24
2019-01-06T13:36:43.332Z,32.14
2019-01-06T13:39:33.815Z,32.63
2019-01-06T13:42:25.090Z,32.16
2019-01-06T13:45:15.357Z,32.64
2019-01-06T13:48:12.357Z,32.72
2019-01-06T13:51:06.342Z,32.38
2019-01-06T13:54:13.358Z,32.90
2019-01-06T13:57:03.710Z,33.23
2019-01-06T13:59:52.954Z,33.35
2019-01-06T14:02:56.536Z,33.42
2019-01-06T14:05:56.335Z,34.10
2019-01-06T14:08:59.603Z,34.28
2019-01-06T14:11:59.758Z,35.02
2019-01-06T14:15:01.983Z,35.02
2019-01-06T14:17:53.520Z,35.63
2019-01-06T14:20:50.305Z,36.71
2019-01-06T14:23:41.430Z,36.52
2019-01-06T14:26:48.279Z,36.24
2019-01-06T14:29:39.504Z,37.31
2019-01-06T14:32:29.654Z,39.63
2019-01-06T14:35:23.327Z,39.42
2019-01-06T14:38:13.560Z,39.42
2019-01-06T14:40:58.813Z,39.82
2019-01-06T14:43:49.792Z,40.30
2019-01-06T14:46:48.359Z,39.46
2019-01-06T14:49:38.097Z,40.54
2019-01-06T14:52:28.415Z,39.31
2019-01-06T14:55:25.444Z,40.83
2019-01-06T14:58:12.335Z,40.73
2019-01-06T15:01:09.555Z,40.73
2019-01-06T15:04:00.476Z,40.63
2019-01-06T15:06:51.009Z,41.15
2019-01-06T15:09:41.818Z,40.21
2019-01-06T15:12:32.521Z,38.15
2019-01-06T15:15:26.727Z,37.21
2019-01-06T15:18:15.282Z,36.61
2019-01-06T15:21:09.523Z,36.50
2019-01-06T15:24:06.286Z,35.87
2019-01-06T15:26:56.563Z,35.87
2019-01-06T15:29:53.485Z,35.96
2019-01-06T15:32:44.581Z,36.13
2019-01-06T15:35:40.069Z,36.18
2019-01-06T15:38:29.782Z,36.18
2019-01-06T15:41:23.136Z,36.16
2019-01-06T15:44:14.522Z,36.59
2019-01-06T15:47:04.329Z,37.07
2019-01-06T15:49:58.338Z,37.71
2019-01-06T15:52:55.540Z,37.88
2019-01-06T15:55:45.495Z,38.30
2019-01-06T15:58:39.375Z,37.54
2019-01-06T16:01:48.953Z,40.45
2019-01-06T16:04:44.780Z,40.67
2019-01-06T16:07:34.930Z,39.61
2019-01-06T16:10:29.581Z,40.04
2019-01-06T16:13:20.004Z,40.45
2019-01-06T16:16:17.528Z,40.45
2019-01-06T16:19:10.881Z,40.61
2019-01-06T16:22:01.643Z,40.80
2019-01-06T16:24:50.965Z,40.65
2019-01-06T16:28:00.993Z,41.04
2019-01-06T16:30:52.334Z,40.96
2019-01-06T16:33:46.029Z,40.89
2019-01-06T16:36:40.901Z,40.98
2019-01-06T16:39:45.045Z,40.81
2019-01-06T16:42:39.575Z,41.38
2019-01-06T16:45:30.555Z,40.97
2019-01-06T16:48:31.011Z,40.97
2019-01-06T16:51:28.385Z,39.87
2019-01-06T16:55:31.626Z,40.68
2019-01-06T16:58:37.837Z,40.84
2019-01-06T17:01:24.549Z,40.51
2019-01-06T17:04:12.336Z,41.01
2019-01-06T17:06:54.059Z,41.01
2019-01-06T17:09:46.391Z,41.01
2019-01-06T17:12:40.479Z,40.85
2019-01-06T17:15:32.354Z,41.16
2019-01-06T17:18:22.553Z,40.92
2019-01-06T17:21:12.367Z,41.02
2019-01-06T17:24:02.346Z,41.41
2019-01-06T17:26:52.469Z,41.51
2019-01-06T17:29:55.531Z,41.45
2019-01-06T17:32:46.651Z,41.31
2019-01-06T17:35:40.327Z,41.42
2019-01-06T17:38:33.834Z,41.42
2019-01-06T17:41:43.503Z,41.59
2019-01-06T17:44:33.870Z,39.09
2019-01-06T17:47:32.355Z,37.75
2019-01-06T17:50:27.498Z,37.80
2019-01-06T17:53:41.417Z,37.22
2019-01-06T17:56:27.361Z,36.36
2019-01-06T17:59:30.995Z,36.36
2019-01-06T18:02:28.435Z,36.45
2019-01-06T18:05:18.405Z,36.37
2019-01-06T18:08:21.830Z,36.53
2019-01-06T18:11:17.838Z,36.77
2019-01-06T18:14:11.884Z,36.46
2019-01-06T18:17:01.752Z,36.93
2019-01-06T18:20:00.779Z,37.00
2019-01-06T18:23:00.295Z,36.94
2019-01-06T18:25:57.765Z,37.39
2019-01-06T18:28:53.782Z,37.25
2019-01-06T18:31:43.422Z,37.61
2019-01-06T18:34:31.698Z,38.45
2019-01-06T18:37:34.374Z,38.87
2019-01-06T18:40:25.104Z,38.87
2019-01-06T18:43:25.432Z,39.74
2019-01-06T18:46:15.787Z,40.38
2019-01-06T18:48:57.834Z,40.16
2019-01-06T18:51:47.608Z,40.52
2019-01-06T18:54:37.623Z,39.76
2019-01-06T18:57:31.342Z,40.61
2019-01-06T19:00:22.357Z,40.61
2019-01-06T19:03:20.461Z,40.78
2019-01-06T19:06:27.109Z,40.84
2019-01-06T19:09:24.603Z,40.71
2019-01-06T19:12:09.861Z,39.15
2019-01-06T19:15:19.577Z,39.15
2019-01-06T19:18:17.262Z,39.75
2019-01-06T19:21:03.339Z,39.75
2019-01-06T19:23:54.456Z,40.59
2019-01-06T19:26:44.365Z,40.73
2019-01-06T19:29:29.477Z,41.28
2019-01-06T19:32:19.504Z,40.29
2019-01-06T19:35:09.434Z,40.72
2019-01-06T19:38:13.327Z,40.62
2019-01-06T19:41:16.853Z,40.63
2019-01-06T19:44:10.639Z,40.92
2019-01-06T19:47:16.285Z,40.49
2019-01-06T19:50:06.305Z,40.96
2019-01-06T19:52:56.485Z,40.86
2019-01-06T19:55:47.418Z,40.82
2019-01-06T19:58:53.490Z,41.42
2019-01-06T20:01:46.248Z,41.34
2019-01-06T20:04:41.332Z,41.24
2019-01-06T20:07:31.593Z,41.46
2019-01-06T20:10:22.325Z,41.66
2019-01-06T20:13:23.317Z,41.66
2019-01-06T20:16:26.384Z,41.45
2019-01-06T20:19:11.841Z,41.56
2019-01-06T20:22:02.818Z,42.04
2019-01-06T20:24:59.530Z,42.10
2019-01-06T20:27:59.397Z,41.84
2019-01-06T20:31:03.400Z,42.17
2019-01-06T20:33:57.352Z,42.29
2019-01-06T20:37:13.041Z,42.39
2019-01-06T20:40:05.001Z,42.16
2019-01-06T20:43:03.445Z,42.24
2019-01-06T20:45:57.515Z,42.01
2019-01-06T20:48:45.747Z,42.31
2019-01-06T20:51:37.604Z,42.31
2019-01-06T20:54:31.316Z,42.30
2019-01-06T20:57:21.447Z,42.17
2019-01-06T21:00:11.703Z,42.51
2019-01-06T21:03:13.272Z,42.15
2019-01-06T21:06:03.544Z,42.29
2019-01-06T21:08:53.531Z,42.73
2019-01-06T21:11:45.404Z,42.73
2019-01-06T21:14:42.749Z,42.97
2019-01-06T21:17:32.302Z,42.71
2019-01-06T21:20:19.325Z,42.62
2019-01-06T21:23:10.020Z,42.59
2019-01-06T21:26:01.108Z,42.88
2019-01-06T21:28:57.980Z,42.83
2019-01-06T21:31:55.524Z,42.44
2019-01-06T21:34:47.667Z,42.63
2019-01-06T21:37:48.632Z,42.63
2019-01-06T21:40:42.340Z,42.86
2019-01-06T21:43:32.326Z,42.86
2019-01-06T21:46:32.770Z,42.51
2019-01-06T21:49:22.531Z,43.00
2019-01-06T21:52:12.631Z,42.33
2019-01-06T21:55:06.517Z,42.95
2019-01-06T21:57:57.571Z,42.95
2019-01-06T22:00:47.585Z,42.11
2019-01-06T22:03:44.833Z,42.68
2019-01-06T22:06:38.520Z,42.68
2019-01-06T22:09:32.839Z,42.82
2019-01-06T22:12:23.716Z,42.82
2019-01-06T22:15:17.318Z,42.60
2019-01-06T22:18:07.342Z,42.83
2019-01-06T22:21:09.891Z,42.62
2019-01-06T22:24:11.729Z,42.74
2019-01-06T22:27:00.448Z,42.59
2019-01-06T22:29:51.293Z,42.70
2019-01-06T22:32:50.305Z,42.74
2019-01-06T22:35:32.306Z,42.65
2019-01-06T22:38:35.004Z,42.68
2019-01-06T22:41:19.306Z,42.52
2019-01-06T22:44:25.497Z,42.57
2019-01-06T22:47:15.795Z,42.53
2019-01-06T22:50:24.524Z,42.49
2019-01-06T22:53:14.370Z,42.70
2019-01-06T22:56:07.718Z,42.64
2019-01-06T22:59:03.379Z,42.68
2019-01-06T23:01:53.694Z,42.65
2019-01-06T23:04:42.051Z,42.54
2019-01-06T23:07:32.333Z,42.42
2019-01-06T23:10:21.505Z,42.94
2019-01-06T23:13:18.050Z,42.53
2019-01-06T23:16:17.758Z,42.45
2019-01-06T23:19:20.882Z,42.99
2019-01-06T23:22:29.777Z,42.52
2019-01-06T23:25:26.318Z,42.65
2019-01-06T23:28:26.573Z,42.92
2019-01-06T23:31:29.302Z,42.62
2019-01-06T23:34:11.778Z,42.62
2019-01-06T23:37:05.325Z,42.98
2019-01-06T23:39:58.757Z,42.97
2019-01-06T23:42:49.041Z,42.90
2019-01-06T23:45:48.753Z,42.83
2019-01-06T23:48:33.448Z,42.91
2019-01-06T23:51:12.309Z,42.95
2019-01-06T23:54:11.265Z,42.91
2019-01-06T23:57:07.307Z,43.05
